Walloon Lake, Michigan
Current Conditions -  °F | °C
As of 5:55 AM on Sunday 23 Nov 2014 (Local Time) from KMGN Reporting Station
Haze Haze  
Wind Chill: 40°   Ceiling: 300
Heat Index: 40°   Visibility: 1mi
Dew Point: 40°   Wind: 0mph
Humidity: 99%   Direction: NA
Pressure: 29.75"   Gusts: NA
Location:  45.27°N, 84.93°W
Report Text: KMGN 231055Z AUTO 00000KT 1SM BR OVC003 04/04 A2975 RMK AO2 T00460044
Loading
Personal Weather Stations






























Interactive Weather Map New forecast layout! Learn more

10-Day Weather Forecast

Advertisements
Track Severe Weather on mobile